Airfield :
LOGIN :

Register | Disclaimer

   EN    FR    IT 

 










Legend :    VFR   Marginal VFR   IFR   Intensive IFR   Very Intensive IFR
Visi :
Ceiling :
>= 8 km
>= 3000ft
5 to 8 km
1000 to 3000 ft
1500m to 5 km
500 to 1000 ft
800 to 1500m
200 to 500 ft
< 800m
< 200 ft
Symbols :   Thunderstorms  Fog  Heavy snow  Heavy precipitations  Wind > 20 kt
SIGMETs :     Misc.  Thunderstorms  Icing  Turbulence  Mountain Waves  Volcanic Ashes






- Airport Elevation : 79 ft
- IATA code : SPU


LDSP - Split

CURRENT METAR :
  • 110330Z AUTO 09008KT 050V130 CAVOK 12/05 Q1021 NOSIG

EXPIRED METARs :
  • 110300Z AUTO 08006KT 050V110 CAVOK 12/05 Q1021 NOSIG
  • 110230Z AUTO 07005KT 050V120 CAVOK 12/04 Q1021 NOSIG
  • 110200Z AUTO 06007KT 030V110 9999 FEW031/// 11/05 Q1021 NOSIG
  • 110130Z AUTO 02004KT 350V060 9999 SCT028/// 10/03 Q1022
  • 110100Z AUTO 01005KT 340V050 9999 BKN030/// 11/03 Q1022

TAF TAF LDSP
Valid from the 11 at 00:00 until the 12 at 00:00 UTC


102325Z 1100/1200 06005KT CAVOK TX15/1112Z TN10/1100Z
BECMG 1104/1106 11013KT
BECMG 1120/1122 11007KT



MET'MAP, your aeronautical weather chart ! - Copyright ORBIFLY December 2007 - Disclaimer

ORBIFLY MET'MAP TEAM :

Programming & Development : Alexandra Zaïnal
Concept & original design : Baudouin d'Aumeries
Assistance for programming : Marc-Olivier Méhu
Technical & hardware support : Manuel Goepfert

Contact : metmap@orbifly.com




SOURCES & CREDITS :

   NOAA